createdAt,value
2023-01-29T00:02:00.636Z,3.83
2023-01-29T00:04:27.983Z,3.76
2023-01-29T00:06:55.232Z,3.78
2023-01-29T00:09:22.744Z,3.74
2023-01-29T00:11:50.004Z,3.73
2023-01-29T00:14:17.616Z,3.73
2023-01-29T00:16:45.388Z,3.75
2023-01-29T00:19:12.576Z,3.74
2023-01-29T00:21:39.965Z,3.71
2023-01-29T00:24:07.530Z,3.74
2023-01-29T00:26:34.842Z,3.66
2023-01-29T00:29:02.993Z,3.56
2023-01-29T00:31:30.854Z,3.59
2023-01-29T00:33:58.744Z,3.55
2023-01-29T00:36:27.113Z,3.59
2023-01-29T00:38:59.914Z,3.59
2023-01-29T00:41:50.656Z,3.54
2023-01-29T00:44:37.645Z,3.47
2023-01-29T00:47:25.818Z,3.57
2023-01-29T00:49:53.367Z,3.43
2023-01-29T00:52:26.666Z,3.56
2023-01-29T00:54:59.096Z,3.51
2023-01-29T00:57:28.698Z,3.40
2023-01-29T00:59:57.389Z,3.30
2023-01-29T01:02:43.890Z,3.39
2023-01-29T01:05:18.786Z,3.49
2023-01-29T01:07:52.867Z,3.46
2023-01-29T01:10:27.904Z,3.41
2023-01-29T01:12:58.791Z,3.47
2023-01-29T01:15:29.381Z,3.44
2023-01-29T01:17:59.910Z,3.33
2023-01-29T01:20:30.151Z,3.34
2023-01-29T01:22:58.779Z,3.39
2023-01-29T01:25:27.734Z,3.29
2023-01-29T01:27:57.600Z,3.31
2023-01-29T01:30:25.805Z,3.34
2023-01-29T01:32:53.478Z,3.33
2023-01-29T01:35:20.920Z,3.29
2023-01-29T01:37:48.042Z,3.35
2023-01-29T01:40:18.941Z,3.34
2023-01-29T01:42:56.784Z,3.20
2023-01-29T01:45:34.716Z,3.24
2023-01-29T01:48:14.634Z,3.24
2023-01-29T01:50:47.241Z,3.26
2023-01-29T01:53:22.014Z,3.16
2023-01-29T01:55:52.946Z,3.25
2023-01-29T01:58:30.587Z,3.19
2023-01-29T02:00:59.295Z,3.18
2023-01-29T02:03:50.165Z,3.16
2023-01-29T02:06:36.571Z,3.21
2023-01-29T02:09:27.575Z,3.08
2023-01-29T02:11:55.506Z,3.13
2023-01-29T02:14:23.052Z,3.17
2023-01-29T02:16:50.416Z,3.16
2023-01-29T02:19:42.593Z,3.15
2023-01-29T02:22:38.956Z,3.13
2023-01-29T02:25:42.785Z,3.09
2023-01-29T02:28:22.401Z,3.18
2023-01-29T02:31:29.798Z,3.04
2023-01-29T02:34:14.296Z,3.07
2023-01-29T02:36:48.514Z,2.95
2023-01-29T02:39:36.693Z,2.83
2023-01-29T02:42:13.021Z,2.80
2023-01-29T02:45:29.742Z,2.91
2023-01-29T02:48:02.420Z,2.95
2023-01-29T02:50:45.226Z,2.85
2023-01-29T02:53:19.665Z,2.99
2023-01-29T02:55:57.543Z,2.89
2023-01-29T02:58:43.135Z,2.85
2023-01-29T03:01:17.261Z,2.81
2023-01-29T03:03:51.091Z,2.82
2023-01-29T03:06:26.680Z,2.80
2023-01-29T03:08:59.449Z,2.82
2023-01-29T03:11:32.343Z,2.86
2023-01-29T03:14:13.718Z,2.84
2023-01-29T03:16:48.229Z,2.58
2023-01-29T03:19:34.902Z,2.83
2023-01-29T03:22:08.766Z,2.79
2023-01-29T03:25:03.727Z,2.85
2023-01-29T03:27:59.772Z,2.84
2023-01-29T03:30:55.696Z,2.75
2023-01-29T03:33:39.635Z,2.69
2023-01-29T03:36:13.651Z,2.67
2023-01-29T03:38:41.136Z,2.56
2023-01-29T03:41:17.392Z,2.67
2023-01-29T03:44:13.406Z,2.66
2023-01-29T03:46:53.108Z,2.69
2023-01-29T03:49:39.529Z,2.70
2023-01-29T03:52:20.312Z,2.62
2023-01-29T03:54:58.237Z,2.58
2023-01-29T03:57:36.932Z,2.66
2023-01-29T04:00:24.079Z,2.68
2023-01-29T04:03:17.613Z,2.59
2023-01-29T04:05:52.249Z,2.56
2023-01-29T04:08:29.691Z,2.62
2023-01-29T04:11:08.049Z,2.59
2023-01-29T04:13:36.968Z,2.65
2023-01-29T04:16:08.894Z,2.67
2023-01-29T04:19:01.189Z,2.70
2023-01-29T04:21:34.368Z,2.68
2023-01-29T04:24:02.542Z,2.72
2023-01-29T04:26:58.983Z,2.63
2023-01-29T04:29:44.112Z,2.63
2023-01-29T04:32:28.000Z,2.62
2023-01-29T04:35:17.434Z,2.60
2023-01-29T04:37:57.167Z,2.56
2023-01-29T04:40:29.198Z,2.66
2023-01-29T04:42:56.586Z,2.43
2023-01-29T04:45:29.069Z,2.52
2023-01-29T04:48:05.707Z,2.61
2023-01-29T04:50:41.117Z,2.52
2023-01-29T04:53:17.195Z,2.58
2023-01-29T04:55:51.341Z,2.53
2023-01-29T04:58:32.942Z,2.51
2023-01-29T05:01:02.588Z,2.46
2023-01-29T05:03:32.970Z,2.36
2023-01-29T05:06:02.946Z,2.47
2023-01-29T05:08:32.404Z,2.52
2023-01-29T05:11:00.528Z,2.46
2023-01-29T05:13:32.181Z,2.38
2023-01-29T05:16:15.601Z,2.43
2023-01-29T05:18:43.524Z,2.40
2023-01-29T05:21:10.988Z,2.34
2023-01-29T05:23:38.195Z,2.31
2023-01-29T05:26:06.714Z,2.36
2023-01-29T05:28:34.365Z,2.31
2023-01-29T05:31:01.773Z,2.40
2023-01-29T05:33:31.580Z,2.38
2023-01-29T05:35:59.909Z,2.37
2023-01-29T05:38:27.125Z,2.34
2023-01-29T05:40:54.908Z,2.43
2023-01-29T05:43:26.273Z,2.42
2023-01-29T05:45:58.182Z,2.38
2023-01-29T05:48:27.850Z,2.36
2023-01-29T05:50:55.338Z,2.34
2023-01-29T05:53:22.606Z,2.41
2023-01-29T05:55:49.931Z,2.41
2023-01-29T05:58:17.845Z,2.39
2023-01-29T06:00:44.987Z,2.29
2023-01-29T06:03:12.434Z,2.46
2023-01-29T06:05:40.497Z,2.42
2023-01-29T06:08:09.008Z,2.36
2023-01-29T06:10:36.806Z,2.42
2023-01-29T06:13:04.299Z,2.28
2023-01-29T06:15:31.659Z,2.41
2023-01-29T06:17:58.738Z,2.32
2023-01-29T06:20:26.460Z,2.38
2023-01-29T06:22:53.715Z,2.27
2023-01-29T06:25:20.881Z,2.21
2023-01-29T06:27:51.464Z,2.29
2023-01-29T06:30:19.075Z,2.26
2023-01-29T06:32:46.541Z,2.16
2023-01-29T06:35:14.323Z,2.19
2023-01-29T06:37:41.674Z,2.29
2023-01-29T06:40:09.244Z,2.28
2023-01-29T06:42:36.650Z,2.25
2023-01-29T06:45:05.040Z,2.22
2023-01-29T06:47:32.754Z,2.32
2023-01-29T06:50:00.693Z,2.26
2023-01-29T06:52:29.287Z,2.29
2023-01-29T06:54:57.098Z,2.24
2023-01-29T06:57:24.645Z,2.25
2023-01-29T06:59:52.072Z,2.23
2023-01-29T07:02:19.442Z,2.19
2023-01-29T07:04:46.934Z,2.28
2023-01-29T07:07:14.399Z,2.19
2023-01-29T07:09:42.704Z,2.11
2023-01-29T07:12:11.326Z,2.13
2023-01-29T07:14:38.844Z,2.05
2023-01-29T07:17:06.309Z,2.09
2023-01-29T07:19:34.098Z,2.01
2023-01-29T07:22:03.523Z,1.95
2023-01-29T07:24:31.003Z,2.04
2023-01-29T07:27:00.757Z,2.08
2023-01-29T07:29:28.010Z,2.03
2023-01-29T07:31:55.287Z,2.02
2023-01-29T07:34:22.793Z,2.10
2023-01-29T07:36:52.916Z,2.09
2023-01-29T07:39:20.260Z,2.01
2023-01-29T07:41:47.455Z,2.07
2023-01-29T07:44:17.748Z,2.07
2023-01-29T07:46:45.014Z,2.18
2023-01-29T07:49:12.286Z,2.05
2023-01-29T07:51:39.573Z,1.94
2023-01-29T07:54:06.730Z,1.96
2023-01-29T07:56:34.104Z,2.01
2023-01-29T07:59:01.252Z,2.02
2023-01-29T08:01:28.590Z,2.03
2023-01-29T08:03:55.689Z,2.01
2023-01-29T08:06:22.973Z,2.10
2023-01-29T08:08:50.592Z,2.15
2023-01-29T08:11:17.831Z,2.10
2023-01-29T08:13:45.978Z,2.06
2023-01-29T08:16:13.818Z,2.08
2023-01-29T08:18:44.401Z,2.16
2023-01-29T08:21:13.071Z,2.11
2023-01-29T08:23:42.665Z,2.08
2023-01-29T08:26:10.776Z,1.92
2023-01-29T08:28:39.137Z,1.99
2023-01-29T08:31:17.030Z,2.05
2023-01-29T08:33:44.305Z,2.12
2023-01-29T08:36:11.576Z,2.10
2023-01-29T08:38:39.032Z,2.04
2023-01-29T08:41:06.949Z,2.03
2023-01-29T08:43:37.285Z,2.15
2023-01-29T08:46:06.183Z,2.26
2023-01-29T08:48:33.750Z,2.30
2023-01-29T08:51:02.870Z,2.26
2023-01-29T08:53:30.644Z,2.32
2023-01-29T08:55:57.932Z,2.34
2023-01-29T08:58:25.264Z,2.27
2023-01-29T09:00:52.671Z,2.37
2023-01-29T09:03:19.966Z,2.39
2023-01-29T09:05:47.387Z,2.45
2023-01-29T09:08:16.214Z,2.29
2023-01-29T09:10:43.817Z,2.37
2023-01-29T09:13:11.370Z,2.38
2023-01-29T09:15:39.080Z,2.38
2023-01-29T09:18:06.952Z,2.46
2023-01-29T09:20:34.776Z,2.52
2023-01-29T09:23:09.577Z,2.45
2023-01-29T09:25:38.330Z,2.45
2023-01-29T09:28:06.587Z,2.61
2023-01-29T09:30:35.052Z,2.61
2023-01-29T09:33:02.310Z,2.68
2023-01-29T09:35:30.014Z,2.77
2023-01-29T09:37:57.552Z,2.57
2023-01-29T09:40:28.694Z,2.64
2023-01-29T09:43:07.133Z,2.66
2023-01-29T09:45:36.231Z,2.76
2023-01-29T09:48:06.220Z,2.87
2023-01-29T09:50:41.042Z,2.95
2023-01-29T09:53:41.214Z,2.87
2023-01-29T09:56:22.652Z,2.88
2023-01-29T09:58:50.377Z,3.03
2023-01-29T10:01:33.352Z,3.03
2023-01-29T10:04:07.109Z,3.23
2023-01-29T10:07:21.475Z,3.24
2023-01-29T10:10:00.273Z,3.28
2023-01-29T10:12:45.570Z,3.47
2023-01-29T10:15:53.619Z,3.49
2023-01-29T10:18:48.046Z,3.48
2023-01-29T10:21:18.405Z,3.44
2023-01-29T10:23:54.667Z,3.40
2023-01-29T10:26:27.594Z,3.38
2023-01-29T10:28:59.417Z,3.56
2023-01-29T10:31:38.997Z,3.43
2023-01-29T10:34:21.806Z,3.45
2023-01-29T10:36:50.408Z,3.62
2023-01-29T10:39:22.843Z,3.48
2023-01-29T10:42:14.655Z,3.47
2023-01-29T10:44:45.049Z,3.49
2023-01-29T10:47:31.420Z,3.55
2023-01-29T10:50:18.852Z,3.51
2023-01-29T10:53:10.976Z,3.66
2023-01-29T10:55:57.515Z,3.59
2023-01-29T10:59:07.027Z,3.69
2023-01-29T11:01:36.764Z,3.66
2023-01-29T11:04:08.460Z,3.79
2023-01-29T11:06:38.847Z,3.70
2023-01-29T11:12:05.944Z,3.90
2023-01-29T11:14:53.153Z,3.85
2023-01-29T11:17:27.593Z,4.04
2023-01-29T11:20:03.271Z,3.96
2023-01-29T11:22:35.628Z,4.03
2023-01-29T11:25:24.458Z,3.92
2023-01-29T11:28:05.826Z,3.99
2023-01-29T11:30:40.137Z,3.98
2023-01-29T11:33:22.681Z,4.11
2023-01-29T11:35:54.867Z,4.15
2023-01-29T11:38:26.784Z,4.02
2023-01-29T11:41:07.604Z,4.08
2023-01-29T11:43:36.469Z,4.00
2023-01-29T11:46:09.188Z,4.16
2023-01-29T11:48:59.086Z,4.01
2023-01-29T11:51:31.125Z,4.06
2023-01-29T11:54:01.326Z,4.07
2023-01-29T11:56:42.411Z,4.00
2023-01-29T11:59:52.659Z,4.06
2023-01-29T12:02:38.307Z,4.33
2023-01-29T12:05:16.485Z,4.31
2023-01-29T12:07:51.095Z,4.51
2023-01-29T12:10:43.397Z,4.61
2023-01-29T12:13:12.187Z,4.63
2023-01-29T12:15:46.017Z,4.40
2023-01-29T12:19:00.931Z,4.54
2023-01-29T12:21:50.801Z,4.63
2023-01-29T12:24:43.264Z,4.68
2023-01-29T12:27:21.256Z,4.64
2023-01-29T12:30:19.010Z,4.63
2023-01-29T12:33:03.413Z,4.61
2023-01-29T12:35:43.216Z,4.86
2023-01-29T12:38:25.975Z,4.67
2023-01-29T12:41:09.885Z,4.83
2023-01-29T12:43:49.379Z,4.91
2023-01-29T12:46:33.873Z,4.80
2023-01-29T12:49:10.260Z,4.82
2023-01-29T12:51:52.144Z,4.80
2023-01-29T12:54:27.570Z,4.77
2023-01-29T12:57:05.552Z,4.81
2023-01-29T12:59:45.489Z,4.95
2023-01-29T13:02:24.506Z,5.51
2023-01-29T13:05:15.332Z,5.59
2023-01-29T13:07:50.992Z,5.39
2023-01-29T13:10:31.240Z,5.16
2023-01-29T13:13:17.846Z,5.01
2023-01-29T13:15:47.882Z,5.06
2023-01-29T13:18:16.108Z,5.11
2023-01-29T13:20:45.773Z,5.08
2023-01-29T13:23:39.625Z,5.35
2023-01-29T13:26:08.759Z,5.64
2023-01-29T13:28:37.448Z,5.49
2023-01-29T13:31:40.995Z,5.80
2023-01-29T13:34:26.677Z,5.70
2023-01-29T13:37:02.415Z,5.54
2023-01-29T13:39:45.942Z,5.49
2023-01-29T13:42:23.281Z,5.69
2023-01-29T13:44:58.151Z,5.62
2023-01-29T13:47:31.930Z,5.47
2023-01-29T13:50:12.578Z,5.30
2023-01-29T13:53:03.413Z,5.40
2023-01-29T13:55:43.059Z,5.59
2023-01-29T13:58:38.700Z,5.76
2023-01-29T14:01:08.295Z,5.63
2023-01-29T14:04:03.802Z,5.72
2023-01-29T14:06:46.199Z,5.78
2023-01-29T14:09:35.877Z,5.71
2023-01-29T14:12:26.739Z,5.65
2023-01-29T14:14:58.827Z,5.47
2023-01-29T14:17:39.360Z,5.59
2023-01-29T14:20:38.717Z,5.56
2023-01-29T14:23:41.320Z,5.48
2023-01-29T14:26:46.807Z,5.74
2023-01-29T14:29:34.196Z,5.81
2023-01-29T14:32:17.877Z,5.85
2023-01-29T14:34:51.860Z,5.93
2023-01-29T14:37:30.034Z,6.14
2023-01-29T14:40:14.175Z,5.69
2023-01-29T14:43:00.524Z,5.66
2023-01-29T14:45:40.379Z,5.52
2023-01-29T14:48:11.445Z,5.96
2023-01-29T14:50:53.080Z,5.77
2023-01-29T14:53:36.689Z,5.76
2023-01-29T14:56:16.518Z,5.72
2023-01-29T14:58:56.211Z,5.81
2023-01-29T15:01:36.014Z,5.68
2023-01-29T15:04:04.639Z,5.84
2023-01-29T15:07:11.607Z,5.96
2023-01-29T15:09:47.076Z,5.86
2023-01-29T15:12:26.989Z,6.04
2023-01-29T15:14:57.592Z,5.84
2023-01-29T15:17:52.534Z,5.80
2023-01-29T15:20:35.550Z,5.64
2023-01-29T15:23:04.362Z,5.73
2023-01-29T15:25:40.215Z,5.68
2023-01-29T15:28:16.711Z,5.75
2023-01-29T15:30:47.327Z,5.69
2023-01-29T15:33:15.622Z,5.75
2023-01-29T15:35:44.016Z,5.61
2023-01-29T15:38:30.026Z,5.56
2023-01-29T15:41:21.703Z,5.31
2023-01-29T15:43:51.968Z,5.58
2023-01-29T15:46:26.757Z,5.38
2023-01-29T15:48:56.571Z,5.54
2023-01-29T15:51:27.595Z,5.40
2023-01-29T15:54:06.227Z,5.51
2023-01-29T15:56:51.393Z,5.43
2023-01-29T15:59:23.167Z,5.59
2023-01-29T16:01:50.754Z,5.55
2023-01-29T16:04:30.082Z,5.58
2023-01-29T16:07:01.231Z,5.65
2023-01-29T16:09:30.077Z,5.53
2023-01-29T16:11:59.701Z,5.48
2023-01-29T16:14:28.935Z,5.43
2023-01-29T16:16:56.624Z,5.39
2023-01-29T16:19:29.586Z,5.26
2023-01-29T16:22:03.694Z,5.30
2023-01-29T16:24:35.073Z,5.24
2023-01-29T16:27:15.130Z,5.26
2023-01-29T16:29:42.906Z,5.30
2023-01-29T16:32:14.465Z,5.20
2023-01-29T16:34:49.130Z,5.23
2023-01-29T16:37:25.905Z,5.19
2023-01-29T16:39:53.878Z,5.24
2023-01-29T16:42:27.089Z,5.31
2023-01-29T16:45:03.763Z,5.40
2023-01-29T16:47:41.868Z,5.22
2023-01-29T16:50:46.305Z,5.20
2023-01-29T16:53:26.535Z,5.13
2023-01-29T16:55:55.191Z,5.17
2023-01-29T16:58:27.052Z,5.05
2023-01-29T17:01:00.884Z,5.00
2023-01-29T17:03:32.172Z,5.02
2023-01-29T17:06:09.470Z,5.11
2023-01-29T17:08:41.134Z,4.77
2023-01-29T17:11:10.218Z,4.99
2023-01-29T17:13:45.138Z,4.97
2023-01-29T17:16:22.030Z,4.91
2023-01-29T17:18:50.782Z,4.86
2023-01-29T17:21:18.797Z,4.96
2023-01-29T17:23:47.228Z,4.85
2023-01-29T17:26:15.918Z,4.81
2023-01-29T17:28:45.640Z,4.78
2023-01-29T17:31:14.418Z,4.83
2023-01-29T17:33:45.295Z,4.78
2023-01-29T17:36:20.301Z,4.67
2023-01-29T17:39:01.625Z,4.75
2023-01-29T17:41:32.235Z,4.67
2023-01-29T17:44:04.920Z,4.69
2023-01-29T17:46:34.960Z,4.57
2023-01-29T17:49:08.543Z,4.52
2023-01-29T17:51:40.183Z,4.43
2023-01-29T17:54:08.312Z,4.42
2023-01-29T17:56:35.563Z,4.35
2023-01-29T17:59:03.250Z,4.30
2023-01-29T18:01:30.619Z,4.28
2023-01-29T18:03:58.135Z,4.24
2023-01-29T18:06:29.408Z,4.25
2023-01-29T18:09:00.561Z,4.31
2023-01-29T18:11:28.804Z,4.18
2023-01-29T18:13:57.243Z,4.10
2023-01-29T18:16:25.319Z,4.01
2023-01-29T18:18:53.390Z,3.76
2023-01-29T18:21:20.858Z,3.85
2023-01-29T18:23:48.377Z,3.78
2023-01-29T18:26:16.967Z,3.58
2023-01-29T18:28:44.347Z,3.57
2023-01-29T18:31:13.939Z,3.47
2023-01-29T18:33:41.638Z,3.38
2023-01-29T18:36:09.505Z,3.31
2023-01-29T18:38:36.833Z,3.20
2023-01-29T18:41:12.889Z,3.19
2023-01-29T18:43:43.448Z,3.09
2023-01-29T18:46:11.836Z,3.08
2023-01-29T18:48:42.591Z,3.09
2023-01-29T18:51:11.214Z,2.97
2023-01-29T18:53:39.325Z,2.85
2023-01-29T18:56:09.329Z,2.75
2023-01-29T18:58:37.738Z,2.67
2023-01-29T19:01:10.175Z,2.48
2023-01-29T19:03:40.141Z,2.34
2023-01-29T19:06:11.383Z,2.35
2023-01-29T19:08:40.712Z,2.24
2023-01-29T19:11:09.745Z,2.13
2023-01-29T19:13:39.661Z,2.17
2023-01-29T19:16:15.190Z,2.06
2023-01-29T19:18:43.786Z,1.87
2023-01-29T19:21:16.236Z,1.82
2023-01-29T19:23:45.024Z,1.76
2023-01-29T19:26:13.952Z,1.65
2023-01-29T19:28:42.051Z,1.47
2023-01-29T19:31:10.250Z,1.44
2023-01-29T19:33:38.325Z,1.31
2023-01-29T19:36:06.209Z,1.32
2023-01-29T19:38:38.150Z,1.28
2023-01-29T19:41:08.350Z,1.26
2023-01-29T19:43:35.920Z,1.17
2023-01-29T19:46:03.942Z,1.06
2023-01-29T19:48:35.100Z,1.01
2023-01-29T19:51:11.238Z,1.04
2023-01-29T19:53:45.141Z,0.92
2023-01-29T19:56:16.227Z,0.95
2023-01-29T19:58:45.393Z,0.89
2023-01-29T20:01:22.465Z,0.84
2023-01-29T20:03:52.632Z,0.88
2023-01-29T20:06:25.408Z,0.90
2023-01-29T20:08:53.804Z,0.94
2023-01-29T20:11:23.406Z,0.82
2023-01-29T20:13:55.022Z,0.54
2023-01-29T20:16:25.565Z,0.72
2023-01-29T20:18:53.193Z,0.75
2023-01-29T20:21:23.265Z,0.67
2023-01-29T20:24:00.014Z,0.75
2023-01-29T20:26:34.013Z,0.68
2023-01-29T20:29:01.884Z,0.71
2023-01-29T20:31:30.192Z,0.59
2023-01-29T20:33:58.939Z,0.60
2023-01-29T20:36:32.099Z,0.62
2023-01-29T20:39:00.227Z,0.62
2023-01-29T20:41:28.103Z,0.68
2023-01-29T20:43:55.412Z,0.68
2023-01-29T20:46:22.838Z,0.63
2023-01-29T20:48:53.754Z,0.57
2023-01-29T20:51:22.040Z,0.54
2023-01-29T20:53:51.485Z,0.49
2023-01-29T20:56:23.706Z,0.44
2023-01-29T20:59:03.765Z,0.51
2023-01-29T21:01:31.543Z,0.49
2023-01-29T21:03:58.977Z,0.44
2023-01-29T21:06:29.907Z,0.47
2023-01-29T21:09:01.573Z,0.45
2023-01-29T21:11:29.115Z,0.49
2023-01-29T21:13:58.784Z,0.50
2023-01-29T21:16:28.885Z,0.58
2023-01-29T21:19:00.171Z,0.59
2023-01-29T21:21:28.039Z,0.66
2023-01-29T21:23:55.808Z,0.64
2023-01-29T21:26:23.989Z,0.65
2023-01-29T21:28:51.653Z,0.64
2023-01-29T21:31:19.475Z,0.68
2023-01-29T21:33:47.492Z,0.69
2023-01-29T21:36:18.014Z,0.75
2023-01-29T21:38:47.244Z,0.74
2023-01-29T21:41:15.825Z,0.73
2023-01-29T21:43:46.424Z,0.74
2023-01-29T21:46:17.143Z,0.78
2023-01-29T21:48:45.704Z,0.81
2023-01-29T21:51:13.313Z,0.72
2023-01-29T21:53:41.303Z,0.87
2023-01-29T21:56:09.509Z,0.90
2023-01-29T21:58:37.019Z,0.83
2023-01-29T22:01:28.023Z,0.85
2023-01-29T22:03:52.358Z,0.83
2023-01-29T22:06:23.147Z,0.87
2023-01-29T22:08:51.101Z,0.89
2023-01-29T22:11:19.585Z,0.83
2023-01-29T22:13:47.802Z,0.68
2023-01-29T22:16:15.601Z,0.72
2023-01-29T22:18:43.377Z,0.68
2023-01-29T22:21:11.097Z,0.57
2023-01-29T22:23:42.315Z,0.51
2023-01-29T22:26:11.394Z,0.46
2023-01-29T22:28:38.794Z,0.47
2023-01-29T22:31:06.254Z,0.43
2023-01-29T22:33:34.956Z,0.45
2023-01-29T22:36:02.772Z,0.39
2023-01-29T22:38:31.692Z,0.35
2023-01-29T22:41:01.544Z,0.24
2023-01-29T22:43:29.551Z,0.22
2023-01-29T22:45:58.759Z,0.15
2023-01-29T22:48:27.618Z,0.19
2023-01-29T22:51:12.173Z,0.15
2023-01-29T22:53:42.618Z,0.10
2023-01-29T22:56:11.461Z,0.05
2023-01-29T22:58:39.147Z,0.00
2023-01-29T23:01:06.688Z,-0.08
2023-01-29T23:03:34.988Z,-0.29
2023-01-29T23:06:04.952Z,-0.19
2023-01-29T23:08:34.093Z,-0.20
2023-01-29T23:11:16.165Z,-0.49
2023-01-29T23:13:45.454Z,-0.24
2023-01-29T23:16:14.758Z,-0.43
2023-01-29T23:18:46.218Z,-0.52
2023-01-29T23:21:13.442Z,-0.32
2023-01-29T23:23:40.820Z,-0.35
2023-01-29T23:26:29.144Z,-0.44
2023-01-29T23:28:58.729Z,-0.40
2023-01-29T23:31:26.468Z,-0.51
2023-01-29T23:33:53.806Z,-0.51
2023-01-29T23:36:21.081Z,-0.54
2023-01-29T23:38:48.309Z,-0.63
2023-01-29T23:41:15.933Z,-0.61
2023-01-29T23:43:43.277Z,-0.67
2023-01-29T23:46:10.374Z,-0.62
2023-01-29T23:48:38.082Z,-0.61
2023-01-29T23:51:05.523Z,-0.64
2023-01-29T23:53:32.763Z,-0.63
2023-01-29T23:56:03.700Z,-0.62
2023-01-29T23:58:32.727Z,-0.71
